Time;durP1;ratioP1;P1;durP2;ratioP2;P2;SDS_P1;SDS_P2;PMS_P1;PMS_P2;Temp;Humidity;BMP_temperature;BMP_pressure;BME280_temperature;BME280_humidity;BME280_pressure;Samples;Min_cycle;Max_cycle;Signal;HPM_P1;HPM_P2
2024/04/08 00:00:47;;;;;;;5.93;1.33;;;;;;;;;;10375669;28;20033;-78
2024/04/08 00:05:52;;;;;;;2.05;1.50;;;;;;;;;;10372436;28;20065;-78
2024/04/08 00:10:54;;;;;;;1.85;0.47;;;;;;;;;;10372352;28;20069;-78
2024/04/08 00:15:59;;;;;;;6.88;1.40;;;;;;;;;;10358861;28;20048;-77
2024/04/08 00:21:03;;;;;;;6.82;1.75;;;;;;;;;;10388434;28;20100;-77
2024/04/08 00:26:04;;;;;;;;;;;;;;;;;;10367085;28;20050;-78
2024/04/08 00:31:06;;;;;;;3.50;1.20;;;;;;;;;;10368383;28;20032;-78
2024/04/08 00:36:10;;;;;;;8.35;1.70;;;;;;;;;;10366070;28;20064;-79
2024/04/08 00:41:11;;;;;;;1.95;1.02;;;;;;;;;;10366874;28;20076;-76
2024/04/08 00:46:17;;;;;;;5.88;1.30;;;;;;;;;;10369876;28;22342;-77
2024/04/08 00:51:20;;;;;;;4.30;1.25;;;;;;;;;;10372363;28;20413;-77
2024/04/08 00:56:23;;;;;;;3.05;1.52;;;;;;;;;;10368444;28;20538;-78
2024/04/08 01:01:25;;;;;;;2.90;0.77;;;;;;;;;;10367593;28;20037;-77
2024/04/08 01:06:28;;;;;;;7.23;1.63;;;;;;;;;;10364182;28;20033;-76
2024/04/08 01:11:30;;;;;;;2.95;1.00;;;;;;;;;;10367348;28;20056;-77
2024/04/08 01:16:32;;;;;;;7.15;1.48;;;;;;;;;;10368685;28;20052;-77
2024/04/08 01:21:35;;;;;;;7.65;1.48;;;;;;;;;;10365076;28;20053;-77
2024/04/08 01:26:38;;;;;;;4.55;1.67;;;;;;;;;;10379970;28;20037;-77
2024/04/08 01:31:39;;;;;;;4.63;1.63;;;;;;;;;;10369378;28;20516;-78
2024/04/08 01:36:41;;;;;;;4.10;1.58;;;;;;;;;;10367748;28;20095;-77
2024/04/08 01:41:45;;;;;;;4.93;1.20;;;;;;;;;;10367316;28;20639;-77
2024/04/08 01:46:46;;;;;;;6.32;1.50;;;;;;;;;;10368251;28;20038;-77
2024/04/08 01:51:48;;;;;;;5.43;1.65;;;;;;;;;;10373896;28;20058;-77
2024/04/08 01:56:52;;;;;;;3.90;1.08;;;;;;;;;;10361390;28;20048;-78
2024/04/08 02:01:54;;;;;;;7.57;1.20;;;;;;;;;;10367912;28;20045;-78
2024/04/08 02:06:56;;;;;;;6.57;1.20;;;;;;;;;;10363340;28;20045;-78
2024/04/08 02:12:00;;;;;;;1.75;0.80;;;;;;;;;;10364121;28;20061;-77
2024/04/08 02:17:03;;;;;;;6.93;0.75;;;;;;;;;;10366517;28;20450;-77
2024/04/08 02:22:06;;;;;;;4.15;1.23;;;;;;;;;;10382832;28;20048;-76
2024/04/08 02:27:09;;;;;;;7.15;1.17;;;;;;;;;;10381998;28;20505;-75
2024/04/08 02:32:11;;;;;;;4.55;1.45;;;;;;;;;;10364593;28;20056;-75
2024/04/08 02:37:13;;;;;;;7.72;1.80;;;;;;;;;;10366971;28;20758;-75
2024/04/08 02:42:16;;;;;;;4.88;1.55;;;;;;;;;;10370853;28;20045;-76
2024/04/08 02:47:17;;;;;;;5.83;1.60;;;;;;;;;;10377162;28;20045;-76
2024/04/08 02:52:19;;;;;;;6.57;1.55;;;;;;;;;;10375362;28;20040;-76
2024/04/08 02:57:23;;;;;;;8.40;1.27;;;;;;;;;;10373215;28;20045;-77
2024/04/08 03:02:25;;;;;;;6.00;1.42;;;;;;;;;;10370093;28;20072;-76
2024/04/08 03:07:27;;;;;;;4.72;1.50;;;;;;;;;;10362584;28;20524;-80
2024/04/08 03:12:30;;;;;;;6.82;1.75;;;;;;;;;;10374829;28;20118;-78
2024/04/08 03:17:33;;;;;;;9.20;1.80;;;;;;;;;;10376182;28;20042;-79
2024/04/08 03:22:35;;;;;;;5.97;1.50;;;;;;;;;;10375700;28;20497;-78
2024/04/08 03:27:40;;;;;;;8.30;1.60;;;;;;;;;;10390421;28;20331;-78
2024/04/08 03:32:42;;;;;;;11.93;1.50;;;;;;;;;;10378784;28;20065;-78
2024/04/08 03:37:44;;;;;;;8.38;1.52;;;;;;;;;;10355527;28;20057;-78
2024/04/08 03:42:48;;;;;;;6.28;1.70;;;;;;;;;;10373929;28;20046;-78
2024/04/08 03:47:50;;;;;;;6.70;1.33;;;;;;;;;;10369388;28;20259;-78
2024/04/08 03:52:52;;;;;;;7.65;1.65;;;;;;;;;;10359252;28;20111;-78
2024/04/08 03:57:55;;;;;;;3.95;1.33;;;;;;;;;;10370756;28;20351;-77
2024/04/08 04:02:56;;;;;;;12.57;1.90;;;;;;;;;;10389575;28;20041;-77
2024/04/08 04:07:58;;;;;;;12.45;1.77;;;;;;;;;;10387765;28;20799;-77
2024/04/08 04:13:02;;;;;;;15.93;1.80;;;;;;;;;;10358613;28;20045;-76
2024/04/08 04:18:04;;;;;;;10.07;1.88;;;;;;;;;;10368473;28;20112;-78
2024/04/08 04:23:06;;;;;;;8.23;1.80;;;;;;;;;;10375300;28;20498;-77
2024/04/08 04:28:09;;;;;;;13.48;2.05;;;;;;;;;;10363065;28;20659;-77
2024/04/08 04:33:12;;;;;;;14.52;2.47;;;;;;;;;;10389771;28;20639;-78
2024/04/08 04:38:13;;;;;;;15.38;2.67;;;;;;;;;;10370174;28;20041;-77
2024/04/08 04:43:16;;;;;;;8.77;2.42;;;;;;;;;;10373020;28;20052;-79
2024/04/08 04:49:48;;;;;;;10.65;2.00;;;;;;;;;;11390286;25;20413;-76
2024/04/08 04:54:52;;;;;;;7.32;1.98;;;;;;;;;;11360619;25;20020;-78
2024/04/08 04:59:57;;;;;;;10.38;2.35;;;;;;;;;;11353727;25;20006;-76
2024/04/08 05:05:04;;;;;;;7.00;1.77;;;;;;;;;;11358452;25;20375;-75
2024/04/08 05:10:09;;;;;;;17.73;2.58;;;;;;;;;;11346583;25;20072;-75
2024/04/08 05:15:14;;;;;;;7.78;2.33;;;;;;;;;;11353043;25;20021;-75
2024/04/08 05:20:25;;;;;;;9.63;2.42;;;;;;;;;;11364730;25;20027;-77
2024/04/08 05:25:29;;;;;;;6.25;2.03;;;;;;;;;;11350956;25;20002;-77
2024/04/08 05:30:35;;;;;;;11.35;2.47;;;;;;;;;;11350276;25;20105;-76
2024/04/08 05:35:44;;;;;;;5.70;2.30;;;;;;;;;;11356025;25;20030;-77
2024/04/08 05:40:48;;;;;;;7.30;2.10;;;;;;;;;;11345817;25;20648;-77
2024/04/08 05:45:53;;;;;;;9.65;2.42;;;;;;;;;;11350740;25;20047;-75
2024/04/08 05:51:00;;;;;;;8.75;2.30;;;;;;;;;;11348601;25;20350;-76
2024/04/08 05:56:05;;;;;;;10.52;2.40;;;;;;;;;;11345277;25;20014;-76
2024/04/08 06:01:10;;;;;;;9.23;1.92;;;;;;;;;;11307639;26;20067;-77
2024/04/08 06:06:20;;;;;;;9.15;2.50;;;;;;;;;;11316294;26;20076;-76
2024/04/08 06:11:39;;;;;;;12.52;2.90;;;;;;;;;;11326232;26;20936;-76
2024/04/08 06:16:47;;;;;;;9.20;2.42;;;;;;;;;;11316325;26;20025;-76
2024/04/08 06:21:55;;;;;;;12.25;2.53;;;;;;;;;;11312762;26;21832;-75
2024/04/08 06:27:00;;;;;;;9.70;2.70;;;;;;;;;;11317928;26;20702;-75
2024/04/08 06:38:06;;;;;;;9.32;2.60;;;;;;;;;;11313887;26;20013;-77
2024/04/08 06:43:10;;;;;;;7.07;2.38;;;;;;;;;;11311044;26;20339;-77
2024/04/08 06:48:14;;;;;;;21.00;3.28;;;;;;;;;;11311535;26;20002;-77
2024/04/08 06:53:23;;;;;;;11.68;2.35;;;;;;;;;;11306330;26;20018;-78
2024/04/08 06:58:28;;;;;;;14.95;3.10;;;;;;;;;;11308007;26;20115;-77
2024/04/08 07:03:32;;;;;;;12.85;3.03;;;;;;;;;;11302118;26;20085;-76
2024/04/08 07:08:40;;;;;;;11.90;3.10;;;;;;;;;;11305254;26;20049;-76
2024/04/08 07:13:44;;;;;;;10.73;3.08;;;;;;;;;;11309951;26;20541;-75
2024/04/08 07:18:49;;;;;;;17.60;3.17;;;;;;;;;;11305748;26;20017;-75
2024/04/08 07:23:56;;;;;;;11.30;2.83;;;;;;;;;;11299276;26;20022;-76
2024/04/08 07:29:01;;;;;;;24.55;3.03;;;;;;;;;;11302725;26;20002;-76
2024/04/08 07:34:05;;;;;;;14.57;2.80;;;;;;;;;;11307967;26;20002;-76
2024/04/08 07:39:13;;;;;;;15.93;2.70;;;;;;;;;;11305630;26;20403;-74
2024/04/08 07:44:17;;;;;;;14.88;2.78;;;;;;;;;;11302065;26;19998;-75
2024/04/08 07:49:22;;;;;;;20.20;2.80;;;;;;;;;;11302066;26;20009;-76
2024/04/08 07:54:29;;;;;;;13.38;2.28;;;;;;;;;;11246560;26;20002;-76
2024/04/08 07:59:34;;;;;;;20.30;3.22;;;;;;;;;;11301825;26;20009;-76
2024/04/08 08:04:39;;;;;;;14.60;2.13;;;;;;;;;;11306922;26;20377;-76
2024/04/08 08:09:46;;;;;;;15.20;2.90;;;;;;;;;;11302666;26;20029;-77
2024/04/08 08:14:52;;;;;;;14.52;2.78;;;;;;;;;;11265968;26;20013;-78
2024/04/08 08:19:57;;;;;;;13.88;3.22;;;;;;;;;;11302939;26;20092;-77
2024/04/08 08:25:05;;;;;;;21.05;3.35;;;;;;;;;;11300685;26;20963;-77
2024/04/08 08:30:10;;;;;;;15.52;2.40;;;;;;;;;;11263426;26;20002;-78
2024/04/08 08:35:16;;;;;;;15.40;2.72;;;;;;;;;;11300696;26;20014;-77
2024/04/08 08:40:24;;;;;;;11.27;2.90;;;;;;;;;;11316112;26;20420;-77
2024/04/08 08:45:29;;;;;;;19.63;3.10;;;;;;;;;;11312768;26;20003;-78
2024/04/08 08:50:35;;;;;;;19.80;3.22;;;;;;;;;;11310275;26;20085;-77
2024/04/08 08:55:42;;;;;;;16.33;3.20;;;;;;;;;;11298538;26;20037;-77
2024/04/08 09:00:49;;;;;;;11.25;3.25;;;;;;;;;;11302012;26;20471;-77
2024/04/08 09:05:55;;;;;;;15.32;3.53;;;;;;;;;;11303746;26;20013;-77
2024/04/08 09:11:07;;;;;;;19.23;2.90;;;;;;;;;;11296204;26;20036;-77
2024/04/08 09:16:12;;;;;;;20.70;3.63;;;;;;;;;;11297441;26;20007;-77
2024/04/08 09:21:17;;;;;;;16.60;3.38;;;;;;;;;;11303114;26;20013;-78
2024/04/08 09:26:24;;;;;;;18.10;3.38;;;;;;;;;;11302933;26;20034;-77
2024/04/08 09:31:29;;;;;;;19.30;3.85;;;;;;;;;;11300913;26;20014;-77
2024/04/08 09:36:34;;;;;;;14.40;3.63;;;;;;;;;;11309318;26;20420;-77
2024/04/08 09:41:42;;;;;;;22.63;4.22;;;;;;;;;;11304957;26;20010;-78
2024/04/08 09:46:47;;;;;;;19.88;4.22;;;;;;;;;;11305497;26;20007;-78
2024/04/08 09:51:52;;;;;;;25.73;4.07;;;;;;;;;;11315621;26;19999;-77
2024/04/08 09:57:02;;;;;;;25.20;4.18;;;;;;;;;;11311985;26;20006;-77
2024/04/08 10:02:19;;;;;;;45.88;5.72;;;;;;;;;;11320764;26;20070;-76
2024/04/08 10:07:23;;;;;;;29.30;5.90;;;;;;;;;;11315268;26;20046;-74
2024/04/08 10:12:39;;;;;;;32.85;8.25;;;;;;;;;;11310918;26;19999;-75
2024/04/08 10:17:44;;;;;;;25.33;5.70;;;;;;;;;;11310139;26;20002;-74
2024/04/08 10:22:51;;;;;;;24.65;5.25;;;;;;;;;;11313571;26;20427;-76
2024/04/08 10:28:09;;;;;;;26.55;5.72;;;;;;;;;;11306575;26;20006;-76
2024/04/08 10:33:21;;;;;;;27.77;5.32;;;;;;;;;;11283725;26;20014;-74
2024/04/08 10:38:26;;;;;;;27.02;6.65;;;;;;;;;;11275719;26;19998;-74
2024/04/08 10:43:39;;;;;;;27.52;6.05;;;;;;;;;;11279991;26;20006;-75
2024/04/08 10:48:44;;;;;;;25.95;5.10;;;;;;;;;;11312413;26;20099;-82
2024/04/08 10:53:49;;;;;;;24.88;5.53;;;;;;;;;;11309293;26;20712;-79
2024/04/08 10:58:56;;;;;;;28.55;5.07;;;;;;;;;;11286599;26;20181;-80
2024/04/08 11:04:07;;;;;;;24.90;5.50;;;;;;;;;;11310160;26;20020;-81
2024/04/08 11:09:13;;;;;;;32.88;5.10;;;;;;;;;;11309138;26;20355;-80
2024/04/08 11:14:23;;;;;;;21.70;5.00;;;;;;;;;;11310869;26;20509;-80
2024/04/08 11:19:31;;;;;;;27.58;5.28;;;;;;;;;;11314620;26;20810;-79
2024/04/08 11:24:40;;;;;;;23.98;4.82;;;;;;;;;;11317933;25;20498;-80
2024/04/08 11:29:51;;;;;;;28.92;5.15;;;;;;;;;;11317168;26;20013;-80
2024/04/08 11:34:55;;;;;;;29.17;4.72;;;;;;;;;;11313050;26;20289;-81
2024/04/08 11:40:00;;;;;;;22.00;5.07;;;;;;;;;;11310012;26;20078;-80
2024/04/08 11:45:09;;;;;;;21.08;5.03;;;;;;;;;;11303856;26;20042;-81
2024/04/08 11:50:14;;;;;;;24.27;4.93;;;;;;;;;;11309804;26;20009;-81
2024/04/08 11:55:21;;;;;;;25.00;4.38;;;;;;;;;;11306812;26;20315;-81
2024/04/08 12:00:29;;;;;;;23.50;5.93;;;;;;;;;;11313621;26;20447;-81
2024/04/08 12:05:38;;;;;;;29.27;4.75;;;;;;;;;;11311045;26;20030;-80
2024/04/08 12:10:43;;;;;;;29.80;4.87;;;;;;;;;;11313127;26;20439;-80
2024/04/08 12:15:51;;;;;;;27.95;5.28;;;;;;;;;;11307947;26;20083;-80
2024/04/08 12:20:55;;;;;;;20.30;4.60;;;;;;;;;;11311856;26;20002;-79
2024/04/08 12:26:00;;;;;;;33.15;4.65;;;;;;;;;;11303680;26;20021;-79
2024/04/08 12:31:07;;;;;;;31.88;6.05;;;;;;;;;;11311750;26;20470;-79
2024/04/08 12:36:13;;;;;;;29.13;5.25;;;;;;;;;;11276226;26;20025;-79
2024/04/08 12:41:18;;;;;;;26.65;4.38;;;;;;;;;;11278949;26;19998;-80
2024/04/08 12:46:25;;;;;;;23.75;5.07;;;;;;;;;;11278194;26;20010;-78
2024/04/08 12:51:30;;;;;;;29.73;4.85;;;;;;;;;;11309170;26;20443;-79
2024/04/08 12:56:35;;;;;;;32.45;5.45;;;;;;;;;;11309496;26;20014;-80
2024/04/08 13:01:43;;;;;;;22.85;4.65;;;;;;;;;;11313001;26;20037;-78
2024/04/08 13:06:48;;;;;;;24.80;4.15;;;;;;;;;;11320937;26;19998;-78
2024/04/08 13:11:53;;;;;;;32.92;4.93;;;;;;;;;;11310225;26;20082;-78
2024/04/08 13:17:00;;;;;;;26.00;4.30;;;;;;;;;;11322930;26;20045;-79
2024/04/08 13:22:05;;;;;;;30.98;4.80;;;;;;;;;;11312374;26;20058;-78
2024/04/08 13:27:09;;;;;;;33.38;5.15;;;;;;;;;;11321738;26;20028;-79
2024/04/08 13:32:17;;;;;;;28.30;5.10;;;;;;;;;;11320605;26;20006;-78
2024/04/08 13:37:21;;;;;;;27.50;4.60;;;;;;;;;;11319991;26;20038;-79
2024/04/08 13:42:33;;;;;;;35.53;4.60;;;;;;;;;;11318396;26;20010;-79
2024/04/08 13:47:44;;;;;;;27.83;5.30;;;;;;;;;;10921210;26;20815;-79
2024/04/08 13:52:49;;;;;;;27.58;4.53;;;;;;;;;;10892576;27;20143;-79
2024/04/08 13:57:56;;;;;;;28.58;3.88;;;;;;;;;;10890096;27;20014;-80
2024/04/08 14:03:03;;;;;;;27.45;4.20;;;;;;;;;;10891827;27;20090;-79
2024/04/08 14:08:08;;;;;;;34.67;5.30;;;;;;;;;;10901408;27;20006;-79
2024/04/08 14:13:12;;;;;;;24.00;4.10;;;;;;;;;;10891073;27;20017;-77
2024/04/08 14:18:20;;;;;;;30.35;5.00;;;;;;;;;;10893847;26;20316;-78
2024/04/08 14:23:24;;;;;;;31.15;4.28;;;;;;;;;;10889527;27;20003;-79
2024/04/08 14:28:30;;;;;;;27.70;3.85;;;;;;;;;;10883435;27;20785;-79
2024/04/08 14:33:37;;;;;;;40.75;5.43;;;;;;;;;;10887307;27;20018;-79
2024/04/08 14:38:42;;;;;;;28.58;4.82;;;;;;;;;;10883695;27;20117;-79
2024/04/08 14:44:07;;;;;;;29.10;4.85;;;;;;;;;;10884492;27;19998;-79
2024/04/08 14:49:22;;;;;;;33.80;4.65;;;;;;;;;;10900080;27;20007;-78
2024/04/08 14:54:27;;;;;;;34.47;4.03;;;;;;;;;;10886719;27;20109;-79
2024/04/08 14:59:31;;;;;;;30.58;4.40;;;;;;;;;;10892370;27;20021;-79
2024/04/08 15:04:39;;;;;;;28.20;4.55;;;;;;;;;;10892761;27;20009;-78
2024/04/08 15:09:44;;;;;;;35.05;4.57;;;;;;;;;;10891281;27;20013;-79
2024/04/08 15:14:48;;;;;;;28.80;3.67;;;;;;;;;;10889532;27;20002;-80
2024/04/08 15:20:00;;;;;;;25.40;5.20;;;;;;;;;;10891564;27;20015;-78
2024/04/08 15:25:05;;;;;;;23.52;4.80;;;;;;;;;;10890815;27;20475;-79
2024/04/08 15:30:10;;;;;;;35.33;4.82;;;;;;;;;;10880996;27;20013;-79
2024/04/08 15:35:18;;;;;;;31.48;4.50;;;;;;;;;;10879103;27;20037;-78
2024/04/08 15:40:26;;;;;;;39.58;5.97;;;;;;;;;;10886353;27;20003;-79
2024/04/08 15:45:30;;;;;;;26.15;5.38;;;;;;;;;;10893862;27;20029;-79
2024/04/08 15:50:42;;;;;;;32.95;4.35;;;;;;;;;;10918972;27;20025;-79
2024/04/08 15:55:46;;;;;;;27.33;4.20;;;;;;;;;;10933897;27;20069;-77
2024/04/08 16:00:59;;;;;;;29.23;4.43;;;;;;;;;;10931940;27;20031;-78
2024/04/08 16:06:10;;;;;;;38.13;4.57;;;;;;;;;;10925057;27;20017;-79
2024/04/08 16:11:21;;;;;;;28.15;3.47;;;;;;;;;;10905054;27;20003;-79
2024/04/08 16:16:26;;;;;;;24.20;3.97;;;;;;;;;;10905214;27;20053;-79
2024/04/08 16:21:34;;;;;;;36.78;5.65;;;;;;;;;;10895146;26;20017;-79
2024/04/08 16:26:39;;;;;;;29.83;4.47;;;;;;;;;;10890739;27;20002;-78
2024/04/08 16:31:43;;;;;;;27.60;4.07;;;;;;;;;;10912469;27;20010;-78
2024/04/08 16:36:51;;;;;;;20.63;3.60;;;;;;;;;;10895446;27;20078;-79
2024/04/08 16:41:55;;;;;;;33.25;4.30;;;;;;;;;;10909202;27;20458;-80
2024/04/08 16:47:00;;;;;;;32.60;4.35;;;;;;;;;;10909535;27;20017;-79
2024/04/08 16:52:08;;;;;;;36.15;4.85;;;;;;;;;;10908815;27;20011;-80
2024/04/08 16:57:13;;;;;;;42.30;5.35;;;;;;;;;;10894925;27;20029;-78
2024/04/08 17:02:18;;;;;;;37.97;4.65;;;;;;;;;;10900285;27;20438;-79
2024/04/08 17:07:27;;;;;;;34.83;6.32;;;;;;;;;;10894124;27;20018;-80
2024/04/08 17:12:32;;;;;;;27.63;4.80;;;;;;;;;;10892134;27;20010;-80
2024/04/08 17:17:37;;;;;;;34.65;5.10;;;;;;;;;;10903384;27;20352;-80
2024/04/08 17:22:46;;;;;;;23.65;3.90;;;;;;;;;;10883852;27;19998;-79
2024/04/08 17:27:51;;;;;;;22.00;3.83;;;;;;;;;;10887841;27;20006;-79
2024/04/08 17:32:55;;;;;;;35.95;4.13;;;;;;;;;;10886711;27;20084;-79
2024/04/08 17:38:03;;;;;;;33.22;4.93;;;;;;;;;;10886378;27;20380;-79
2024/04/08 17:43:07;;;;;;;29.55;4.53;;;;;;;;;;10884938;27;20110;-79
2024/04/08 17:48:12;;;;;;;24.55;3.90;;;;;;;;;;10889250;27;20018;-79
2024/04/08 17:53:21;;;;;;;28.83;4.85;;;;;;;;;;10886867;27;20023;-79
2024/04/08 17:58:26;;;;;;;29.42;3.75;;;;;;;;;;10889442;27;20002;-79
2024/04/08 18:03:31;;;;;;;27.45;6.05;;;;;;;;;;10888902;26;20002;-79
2024/04/08 18:08:39;;;;;;;36.65;4.43;;;;;;;;;;10885633;27;20050;-78
2024/04/08 18:13:49;;;;;;;28.98;4.75;;;;;;;;;;10890309;27;20083;-78
2024/04/08 18:18:54;;;;;;;27.20;4.38;;;;;;;;;;10890900;27;20451;-77
2024/04/08 18:24:02;;;;;;;35.33;5.32;;;;;;;;;;10893090;27;20014;-79
2024/04/08 18:29:07;;;;;;;21.83;3.85;;;;;;;;;;10894144;27;20022;-78
2024/04/08 18:34:12;;;;;;;31.77;4.32;;;;;;;;;;10896331;27;20006;-79
2024/04/08 18:39:26;;;;;;;32.67;3.92;;;;;;;;;;10894085;27;20006;-78
2024/04/08 18:44:30;;;;;;;22.33;4.18;;;;;;;;;;10896545;27;20073;-80
2024/04/08 18:49:35;;;;;;;28.98;4.57;;;;;;;;;;10887238;27;20018;-79
2024/04/08 18:54:44;;;;;;;24.33;3.92;;;;;;;;;;10898735;27;20012;-80
2024/04/08 18:59:49;;;;;;;35.63;4.85;;;;;;;;;;10904902;27;20022;-78
2024/04/08 19:05:02;;;;;;;32.88;4.38;;;;;;;;;;10894933;27;20002;-78
2024/04/08 19:10:10;;;;;;;33.75;4.03;;;;;;;;;;10903004;27;20687;-80
2024/04/08 19:15:15;;;;;;;24.20;4.38;;;;;;;;;;10895945;27;20570;-80
2024/04/08 19:20:22;;;;;;;22.80;4.15;;;;;;;;;;10908806;27;20352;-82
2024/04/08 19:25:34;;;;;;;32.15;5.55;;;;;;;;;;10899137;27;20002;-79
2024/04/08 19:30:40;;;;;;;43.65;6.63;;;;;;;;;;10909415;27;20049;-79
2024/04/08 19:35:44;;;;;;;31.33;6.05;;;;;;;;;;10905002;27;20044;-79
2024/04/08 19:41:01;;;;;;;30.50;4.35;;;;;;;;;;10900015;27;20016;-79
2024/04/08 19:46:21;;;;;;;18.35;4.15;;;;;;;;;;10931700;26;20042;-78
2024/04/08 19:51:34;;;;;;;22.75;3.85;;;;;;;;;;10902673;27;20443;-79
2024/04/08 19:56:41;;;;;;;27.67;3.95;;;;;;;;;;10894870;27;20053;-77
2024/04/08 20:01:48;;;;;;;18.23;3.63;;;;;;;;;;10894221;27;20002;-79
2024/04/08 20:06:53;;;;;;;16.15;2.63;;;;;;;;;;10891978;27;20102;-78
2024/04/08 20:12:00;;;;;;;20.25;3.72;;;;;;;;;;10886788;27;20456;-81
2024/04/08 20:17:05;;;;;;;22.73;3.95;;;;;;;;;;10889870;27;22332;-79
2024/04/08 20:22:10;;;;;;;20.33;3.97;;;;;;;;;;10887801;27;20100;-80
2024/04/08 20:27:17;;;;;;;22.55;3.78;;;;;;;;;;10884437;27;20089;-80
2024/04/08 20:32:23;;;;;;;24.77;3.90;;;;;;;;;;10882919;27;20026;-78
2024/04/08 20:37:29;;;;;;;22.80;3.50;;;;;;;;;;10897396;27;20025;-78
2024/04/08 20:42:47;;;;;;;27.90;3.85;;;;;;;;;;10898933;27;20429;-81
2024/04/08 20:47:55;;;;;;;26.35;4.25;;;;;;;;;;10897763;27;20025;-81
2024/04/08 20:53:03;;;;;;;16.08;3.17;;;;;;;;;;10892873;27;20010;-80
2024/04/08 20:58:11;;;;;;;23.60;4.45;;;;;;;;;;10896438;27;20018;-82
2024/04/08 21:03:16;;;;;;;27.30;4.47;;;;;;;;;;10888797;27;20017;-81
2024/04/08 21:08:21;;;;;;;17.25;3.35;;;;;;;;;;10899596;27;20002;-81
2024/04/08 21:13:29;;;;;;;25.23;4.13;;;;;;;;;;10903470;27;20010;-81
2024/04/08 21:18:35;;;;;;;15.02;3.65;;;;;;;;;;10896086;27;20007;-81
2024/04/08 21:23:41;;;;;;;21.75;3.95;;;;;;;;;;10888245;27;20839;-81
2024/04/08 21:28:48;;;;;;;12.18;1.73;;;;;;;;;;10905766;27;20017;-78
2024/04/08 21:33:54;;;;;;;19.00;4.15;;;;;;;;;;10904755;27;20003;-79
2024/04/08 21:38:58;;;;;;;19.23;2.85;;;;;;;;;;10915815;27;20269;-79
2024/04/08 21:44:06;;;;;;;9.38;2.92;;;;;;;;;;10904403;27;20010;-80
2024/04/08 21:49:11;;;;;;;13.02;2.95;;;;;;;;;;10899332;27;20268;-78
2024/04/08 21:54:16;;;;;;;14.68;3.17;;;;;;;;;;10904457;27;20029;-80
2024/04/08 21:59:23;;;;;;;11.77;3.08;;;;;;;;;;10896309;27;20006;-81
2024/04/08 22:04:28;;;;;;;17.27;3.30;;;;;;;;;;10904300;27;20016;-80
2024/04/08 22:09:32;;;;;;;14.57;2.47;;;;;;;;;;10901150;27;20018;-81
2024/04/08 22:14:40;;;;;;;15.40;2.72;;;;;;;;;;10903039;27;20025;-79
2024/04/08 22:19:44;;;;;;;11.38;2.45;;;;;;;;;;10905108;27;20110;-80
2024/04/08 22:24:49;;;;;;;14.75;2.92;;;;;;;;;;10902688;27;20018;-80
2024/04/08 22:29:56;;;;;;;6.32;2.03;;;;;;;;;;10896869;27;20017;-79
2024/04/08 22:35:01;;;;;;;16.63;2.20;;;;;;;;;;10906190;27;20018;-78
2024/04/08 22:40:06;;;;;;;14.00;2.47;;;;;;;;;;10902626;27;20014;-79
2024/04/08 22:45:14;;;;;;;17.55;2.55;;;;;;;;;;10899398;27;20014;-78
2024/04/08 22:50:20;;;;;;;17.58;3.00;;;;;;;;;;10900737;27;20020;-78
2024/04/08 22:55:25;;;;;;;18.48;2.40;;;;;;;;;;10903730;27;20002;-78
2024/04/08 23:00:32;;;;;;;19.88;2.75;;;;;;;;;;10906258;27;20077;-79
2024/04/08 23:05:37;;;;;;;11.55;1.92;;;;;;;;;;10911839;27;20022;-77
2024/04/08 23:10:41;;;;;;;9.35;2.20;;;;;;;;;;10904206;27;20002;-77
2024/04/08 23:15:49;;;;;;;12.50;2.00;;;;;;;;;;10908103;27;20016;-79
2024/04/08 23:20:53;;;;;;;10.52;2.28;;;;;;;;;;10911346;27;20031;-79
2024/04/08 23:25:58;;;;;;;14.32;2.78;;;;;;;;;;10896967;27;20029;-79
2024/04/08 23:31:05;;;;;;;13.50;2.60;;;;;;;;;;10897371;27;20034;-79
2024/04/08 23:36:09;;;;;;;16.20;2.30;;;;;;;;;;10892939;27;20093;-79
2024/04/08 23:41:14;;;;;;;12.57;2.60;;;;;;;;;;10890798;27;20855;-79
2024/04/08 23:46:21;;;;;;;12.18;2.25;;;;;;;;;;10895393;27;20017;-78
2024/04/08 23:51:26;;;;;;;6.88;1.88;;;;;;;;;;10889532;27;20021;-78
2024/04/08 23:56:31;;;;;;;12.40;2.03;;;;;;;;;;10903009;27;19998;-80
